sensor_id;sensor_type;location;lat;lon;timestamp;pressure;altitude;pressure_sealevel;temperature;humidity
10897;BME280;5501;51.176;6.470;2023-08-08T00:00:47;100993.78;;;15.64;92.04
10897;BME280;5501;51.176;6.470;2023-08-08T00:05:49;100999.25;;;15.61;92.15
10897;BME280;5501;51.176;6.470;2023-08-08T00:10:51;100976.75;;;15.45;92.76
10897;BME280;5501;51.176;6.470;2023-08-08T00:15:53;100969.09;;;15.56;91.96
10897;BME280;5501;51.176;6.470;2023-08-08T00:20:54;100979.41;;;15.45;92.50
10897;BME280;5501;51.176;6.470;2023-08-08T00:25:56;100971.09;;;15.51;92.02
10897;BME280;5501;51.176;6.470;2023-08-08T00:30:57;100965.06;;;15.46;91.59
10897;BME280;5501;51.176;6.470;2023-08-08T00:35:59;100959.28;;;15.35;92.78
10897;BME280;5501;51.176;6.470;2023-08-08T00:41:01;100957.66;;;15.31;92.34
10897;BME280;5501;51.176;6.470;2023-08-08T00:46:03;100960.78;;;15.42;91.58
10897;BME280;5501;51.176;6.470;2023-08-08T00:51:04;100964.41;;;15.41;91.81
10897;BME280;5501;51.176;6.470;2023-08-08T00:56:06;100967.88;;;15.43;91.69
10897;BME280;5501;51.176;6.470;2023-08-08T01:01:08;100955.91;;;15.30;93.02
10897;BME280;5501;51.176;6.470;2023-08-08T01:06:25;100964.53;;;15.38;92.45
10897;BME280;5501;51.176;6.470;2023-08-08T01:11:33;100959.66;;;15.26;93.77
10897;BME280;5501;51.176;6.470;2023-08-08T01:16:36;100964.19;;;15.25;93.76
10897;BME280;5501;51.176;6.470;2023-08-08T01:21:38;100959.66;;;15.26;93.33
10897;BME280;5501;51.176;6.470;2023-08-08T01:26:42;100958.19;;;15.19;94.21
10897;BME280;5501;51.176;6.470;2023-08-08T01:31:44;100965.44;;;15.17;94.16
10897;BME280;5501;51.176;6.470;2023-08-08T01:36:56;100955.59;;;15.17;94.34
10897;BME280;5501;51.176;6.470;2023-08-08T01:41:59;100953.09;;;15.13;94.74
10897;BME280;5501;51.176;6.470;2023-08-08T01:47:02;100943.25;;;15.13;94.80
10897;BME280;5501;51.176;6.470;2023-08-08T01:52:05;100935.22;;;15.13;95.33
10897;BME280;5501;51.176;6.470;2023-08-08T01:57:06;100930.19;;;15.06;94.83
10897;BME280;5501;51.176;6.470;2023-08-08T02:02:08;100934.59;;;15.07;95.52
10897;BME280;5501;51.176;6.470;2023-08-08T02:07:09;100926.56;;;15.07;95.05
10897;BME280;5501;51.176;6.470;2023-08-08T02:12:11;100931.91;;;15.07;95.19
10897;BME280;5501;51.176;6.470;2023-08-08T02:17:13;100928.16;;;15.11;94.96
10897;BME280;5501;51.176;6.470;2023-08-08T02:22:14;100920.41;;;15.05;95.26
10897;BME280;5501;51.176;6.470;2023-08-08T02:27:16;100915.69;;;14.90;96.38
10897;BME280;5501;51.176;6.470;2023-08-08T02:32:17;100914.78;;;14.91;96.55
10897;BME280;5501;51.176;6.470;2023-08-08T02:37:20;100907.66;;;14.90;97.04
10897;BME280;5501;51.176;6.470;2023-08-08T02:42:21;100907.28;;;14.99;97.08
10897;BME280;5501;51.176;6.470;2023-08-08T02:47:23;100890.94;;;15.05;96.20
10897;BME280;5501;51.176;6.470;2023-08-08T02:52:26;100894.19;;;14.91;97.86
10897;BME280;5501;51.176;6.470;2023-08-08T02:57:28;100888.84;;;14.91;97.83
10897;BME280;5501;51.176;6.470;2023-08-08T03:02:30;100873.13;;;14.84;98.48
10897;BME280;5501;51.176;6.470;2023-08-08T03:07:32;100890.25;;;14.80;99.14
10897;BME280;5501;51.176;6.470;2023-08-08T03:12:34;100886.69;;;14.79;99.34
10897;BME280;5501;51.176;6.470;2023-08-08T03:17:37;100882.41;;;14.75;99.93
10897;BME280;5501;51.176;6.470;2023-08-08T03:22:38;100882.47;;;14.74;100.00
10897;BME280;5501;51.176;6.470;2023-08-08T03:27:42;100870.84;;;14.75;100.00
10897;BME280;5501;51.176;6.470;2023-08-08T03:32:47;100878.59;;;14.81;100.00
10897;BME280;5501;51.176;6.470;2023-08-08T03:37:48;100878.44;;;14.64;100.00
10897;BME280;5501;51.176;6.470;2023-08-08T03:42:50;100887.66;;;14.57;100.00
10897;BME280;5501;51.176;6.470;2023-08-08T03:47:52;100887.66;;;14.57;100.00
10897;BME280;5501;51.176;6.470;2023-08-08T03:52:54;100890.09;;;14.63;100.00
10897;BME280;5501;51.176;6.470;2023-08-08T03:57:57;100887.81;;;14.74;100.00
10897;BME280;5501;51.176;6.470;2023-08-08T04:02:58;100882.63;;;14.71;100.00
10897;BME280;5501;51.176;6.470;2023-08-08T04:08:00;100875.50;;;14.70;100.00
10897;BME280;5501;51.176;6.470;2023-08-08T04:13:02;100871.84;;;14.72;100.00
10897;BME280;5501;51.176;6.470;2023-08-08T04:18:04;100879.94;;;14.71;100.00
10897;BME280;5501;51.176;6.470;2023-08-08T04:23:07;100879.66;;;14.77;100.00
10897;BME280;5501;51.176;6.470;2023-08-08T04:28:09;100868.72;;;14.83;100.00
10897;BME280;5501;51.176;6.470;2023-08-08T04:33:11;100867.22;;;14.76;100.00
10897;BME280;5501;51.176;6.470;2023-08-08T04:38:14;100870.16;;;14.90;100.00
10897;BME280;5501;51.176;6.470;2023-08-08T04:43:16;100870.44;;;14.84;100.00
10897;BME280;5501;51.176;6.470;2023-08-08T04:48:18;100870.31;;;14.87;100.00
10897;BME280;5501;51.176;6.470;2023-08-08T04:53:19;100856.72;;;14.91;100.00
10897;BME280;5501;51.176;6.470;2023-08-08T04:58:21;100868.44;;;14.89;100.00
10897;BME280;5501;51.176;6.470;2023-08-08T05:03:23;100871.78;;;14.94;100.00
10897;BME280;5501;51.176;6.470;2023-08-08T05:08:26;100864.56;;;14.96;100.00
10897;BME280;5501;51.176;6.470;2023-08-08T05:13:27;100860.53;;;15.06;100.00
10897;BME280;5501;51.176;6.470;2023-08-08T05:18:29;100863.09;;;15.09;100.00
10897;BME280;5501;51.176;6.470;2023-08-08T05:23:30;100866.09;;;15.21;100.00
10897;BME280;5501;51.176;6.470;2023-08-08T05:28:32;100868.69;;;15.23;100.00
10897;BME280;5501;51.176;6.470;2023-08-08T05:33:33;100874.81;;;15.26;100.00
10897;BME280;5501;51.176;6.470;2023-08-08T05:38:35;100855.97;;;15.28;100.00
10897;BME280;5501;51.176;6.470;2023-08-08T05:43:36;100866.31;;;15.37;100.00
10897;BME280;5501;51.176;6.470;2023-08-08T05:48:38;100872.47;;;15.39;100.00
10897;BME280;5501;51.176;6.470;2023-08-08T05:53:39;100880.25;;;15.45;100.00
10897;BME280;5501;51.176;6.470;2023-08-08T05:58:41;100881.28;;;15.61;100.00
10897;BME280;5501;51.176;6.470;2023-08-08T06:03:42;100877.88;;;15.76;100.00
10897;BME280;5501;51.176;6.470;2023-08-08T06:08:44;100877.88;;;15.76;100.00
10897;BME280;5501;51.176;6.470;2023-08-08T06:13:46;100881.75;;;15.71;100.00
10897;BME280;5501;51.176;6.470;2023-08-08T06:18:47;100895.06;;;15.72;100.00
10897;BME280;5501;51.176;6.470;2023-08-08T06:23:49;100900.16;;;15.78;100.00
10897;BME280;5501;51.176;6.470;2023-08-08T06:28:51;100896.19;;;16.05;100.00
10897;BME280;5501;51.176;6.470;2023-08-08T06:33:53;100887.91;;;16.10;100.00
10897;BME280;5501;51.176;6.470;2023-08-08T06:38:54;100896.53;;;16.16;100.00
10897;BME280;5501;51.176;6.470;2023-08-08T06:43:56;100908.72;;;16.23;99.93
10897;BME280;5501;51.176;6.470;2023-08-08T06:48:58;100898.88;;;16.42;98.01
10897;BME280;5501;51.176;6.470;2023-08-08T06:54:01;100899.44;;;16.30;99.21
10897;BME280;5501;51.176;6.470;2023-08-08T06:59:02;100895.50;;;16.37;99.43
10897;BME280;5501;51.176;6.470;2023-08-08T07:04:04;100889.28;;;16.55;98.78
10897;BME280;5501;51.176;6.470;2023-08-08T07:09:06;100894.94;;;16.85;97.63
10897;BME280;5501;51.176;6.470;2023-08-08T07:14:11;100892.69;;;16.76;96.62
10897;BME280;5501;51.176;6.470;2023-08-08T07:19:13;100890.66;;;16.81;96.62
10897;BME280;5501;51.176;6.470;2023-08-08T07:24:14;100891.69;;;16.78;96.78
10897;BME280;5501;51.176;6.470;2023-08-08T07:29:16;100883.47;;;16.98;95.97
10897;BME280;5501;51.176;6.470;2023-08-08T07:34:18;100880.97;;;17.12;95.51
10897;BME280;5501;51.176;6.470;2023-08-08T07:39:20;100884.75;;;17.25;93.93
10897;BME280;5501;51.176;6.470;2023-08-08T07:44:22;100894.88;;;17.03;94.74
10897;BME280;5501;51.176;6.470;2023-08-08T07:49:24;100887.91;;;16.99;95.05
10897;BME280;5501;51.176;6.470;2023-08-08T07:54:25;100893.59;;;17.10;94.53
10897;BME280;5501;51.176;6.470;2023-08-08T07:59:27;100889.00;;;17.29;95.03
10897;BME280;5501;51.176;6.470;2023-08-08T08:04:28;100885.34;;;17.30;95.43
10897;BME280;5501;51.176;6.470;2023-08-08T08:09:30;100896.63;;;17.55;93.88
10897;BME280;5501;51.176;6.470;2023-08-08T08:14:31;100900.47;;;17.67;93.78
10897;BME280;5501;51.176;6.470;2023-08-08T08:19:33;100892.56;;;17.47;93.63
10897;BME280;5501;51.176;6.470;2023-08-08T08:24:35;100888.84;;;17.32;94.41
10897;BME280;5501;51.176;6.470;2023-08-08T08:29:36;100897.47;;;17.22;94.85
10897;BME280;5501;51.176;6.470;2023-08-08T08:34:38;100888.22;;;17.10;95.97
10897;BME280;5501;51.176;6.470;2023-08-08T08:39:39;100898.59;;;17.18;96.82
10897;BME280;5501;51.176;6.470;2023-08-08T08:44:42;100897.09;;;17.12;95.81
10897;BME280;5501;51.176;6.470;2023-08-08T08:49:43;100888.22;;;17.10;95.44
10897;BME280;5501;51.176;6.470;2023-08-08T08:54:46;100901.19;;;17.36;94.84
10897;BME280;5501;51.176;6.470;2023-08-08T08:59:48;100891.88;;;17.43;94.16
10897;BME280;5501;51.176;6.470;2023-08-08T09:04:50;100893.63;;;17.44;95.70
10897;BME280;5501;51.176;6.470;2023-08-08T09:09:52;100889.63;;;17.68;95.25
10897;BME280;5501;51.176;6.470;2023-08-08T09:14:57;100882.09;;;17.90;92.73
10897;BME280;5501;51.176;6.470;2023-08-08T09:19:59;100881.41;;;18.02;92.58
10897;BME280;5501;51.176;6.470;2023-08-08T09:25:01;100880.94;;;18.27;90.70
10897;BME280;5501;51.176;6.470;2023-08-08T09:30:04;100891.28;;;18.34;90.12
10897;BME280;5501;51.176;6.470;2023-08-08T09:35:06;100880.78;;;18.45;89.50
10897;BME280;5501;51.176;6.470;2023-08-08T09:40:13;100878.69;;;18.50;88.60
10897;BME280;5501;51.176;6.470;2023-08-08T09:45:14;100875.91;;;18.36;87.45
10897;BME280;5501;51.176;6.470;2023-08-08T09:50:16;100874.66;;;18.26;87.48
10897;BME280;5501;51.176;6.470;2023-08-08T09:55:19;100880.47;;;18.03;86.78
10897;BME280;5501;51.176;6.470;2023-08-08T10:00:21;100888.03;;;18.12;85.69
10897;BME280;5501;51.176;6.470;2023-08-08T10:05:23;100893.59;;;18.09;86.76
10897;BME280;5501;51.176;6.470;2023-08-08T10:10:26;100903.47;;;17.93;87.93
10897;BME280;5501;51.176;6.470;2023-08-08T10:15:28;100904.69;;;18.03;87.58
10897;BME280;5501;51.176;6.470;2023-08-08T10:20:31;100909.50;;;17.81;89.32
10897;BME280;5501;51.176;6.470;2023-08-08T10:25:36;100898.91;;;17.78;91.25
10897;BME280;5501;51.176;6.470;2023-08-08T10:30:48;100888.81;;;17.99;90.39
10897;BME280;5501;51.176;6.470;2023-08-08T10:36:01;100885.19;;;18.46;88.32
10897;BME280;5501;51.176;6.470;2023-08-08T10:41:03;100888.53;;;18.81;84.04
10897;BME280;5501;51.176;6.470;2023-08-08T10:46:05;100896.53;;;18.82;82.49
10897;BME280;5501;51.176;6.470;2023-08-08T10:51:15;100884.28;;;18.77;84.26
10897;BME280;5501;51.176;6.470;2023-08-08T10:56:18;100891.25;;;18.81;83.43
10897;BME280;5501;51.176;6.470;2023-08-08T11:01:24;100890.44;;;18.94;81.76
10897;BME280;5501;51.176;6.470;2023-08-08T11:06:26;100896.47;;;18.68;80.98
10897;BME280;5501;51.176;6.470;2023-08-08T11:11:36;100881.47;;;18.49;83.04
10897;BME280;5501;51.176;6.470;2023-08-08T11:16:37;100894.50;;;18.41;83.61
10897;BME280;5501;51.176;6.470;2023-08-08T11:21:41;100901.09;;;18.35;85.21
10897;BME280;5501;51.176;6.470;2023-08-08T11:26:44;100895.84;;;18.32;85.86
10897;BME280;5501;51.176;6.470;2023-08-08T11:31:48;100883.69;;;18.25;86.22
10897;BME280;5501;51.176;6.470;2023-08-08T11:36:50;100888.91;;;18.13;86.49
10897;BME280;5501;51.176;6.470;2023-08-08T11:41:52;100898.44;;;18.03;85.99
10897;BME280;5501;51.176;6.470;2023-08-08T11:46:53;100893.66;;;17.60;92.70
10897;BME280;5501;51.176;6.470;2023-08-08T11:51:55;100905.09;;;17.63;93.45
10897;BME280;5501;51.176;6.470;2023-08-08T11:56:57;100897.94;;;17.30;97.65
10897;BME280;5501;51.176;6.470;2023-08-08T12:01:58;100887.03;;;17.16;100.00
10897;BME280;5501;51.176;6.470;2023-08-08T12:07:03;100892.25;;;17.19;100.00
10897;BME280;5501;51.176;6.470;2023-08-08T12:12:05;100893.88;;;17.38;98.88
10897;BME280;5501;51.176;6.470;2023-08-08T12:17:11;100873.03;;;17.76;98.33
10897;BME280;5501;51.176;6.470;2023-08-08T12:22:14;100881.28;;;17.73;98.05
10897;BME280;5501;51.176;6.470;2023-08-08T12:27:16;100873.72;;;17.79;99.06
10897;BME280;5501;51.176;6.470;2023-08-08T12:32:21;100876.91;;;18.18;96.66
10897;BME280;5501;51.176;6.470;2023-08-08T12:37:24;100869.03;;;18.46;94.06
10897;BME280;5501;51.176;6.470;2023-08-08T12:42:26;100865.22;;;18.50;89.73
10897;BME280;5501;51.176;6.470;2023-08-08T12:47:28;100869.38;;;18.56;90.23
10897;BME280;5501;51.176;6.470;2023-08-08T12:52:31;100863.66;;;18.91;88.72
10897;BME280;5501;51.176;6.470;2023-08-08T12:57:32;100866.47;;;18.74;86.61
10897;BME280;5501;51.176;6.470;2023-08-08T13:02:34;100855.16;;;18.83;86.73
10897;BME280;5501;51.176;6.470;2023-08-08T13:07:36;100852.19;;;18.43;88.76
10897;BME280;5501;51.176;6.470;2023-08-08T13:12:37;100860.75;;;18.18;90.63
10897;BME280;5501;51.176;6.470;2023-08-08T13:17:39;100848.78;;;18.24;92.33
10897;BME280;5501;51.176;6.470;2023-08-08T13:22:41;100853.00;;;18.59;92.71
10897;BME280;5501;51.176;6.470;2023-08-08T13:27:44;100848.47;;;19.04;89.25
10897;BME280;5501;51.176;6.470;2023-08-08T13:32:46;100840.84;;;19.54;84.14
10897;BME280;5501;51.176;6.470;2023-08-08T13:37:47;100846.66;;;19.34;78.12
10897;BME280;5501;51.176;6.470;2023-08-08T13:42:52;100855.09;;;19.28;79.05
10897;BME280;5501;51.176;6.470;2023-08-08T13:47:53;100844.72;;;19.36;79.02
10897;BME280;5501;51.176;6.470;2023-08-08T13:52:55;100841.34;;;19.89;75.02
10897;BME280;5501;51.176;6.470;2023-08-08T13:57:56;100832.94;;;20.08;74.79
10897;BME280;5501;51.176;6.470;2023-08-08T14:03:00;100840.06;;;20.23;73.98
10897;BME280;5501;51.176;6.470;2023-08-08T14:08:03;100832.47;;;20.42;69.36
10897;BME280;5501;51.176;6.470;2023-08-08T14:13:04;100842.56;;;20.26;69.16
10897;BME280;5501;51.176;6.470;2023-08-08T14:18:06;100836.50;;;20.08;69.48
10897;BME280;5501;51.176;6.470;2023-08-08T14:23:09;100846.16;;;20.53;67.87
10897;BME280;5501;51.176;6.470;2023-08-08T14:28:10;100833.34;;;20.69;67.46
10897;BME280;5501;51.176;6.470;2023-08-08T14:33:15;100824.75;;;20.50;62.42
10897;BME280;5501;51.176;6.470;2023-08-08T14:38:17;100846.44;;;20.08;64.70
10897;BME280;5501;51.176;6.470;2023-08-08T14:43:19;100845.94;;;20.56;65.05
10897;BME280;5501;51.176;6.470;2023-08-08T14:48:21;100843.50;;;20.39;60.55
10897;BME280;5501;51.176;6.470;2023-08-08T14:53:22;100854.53;;;20.08;61.88
10897;BME280;5501;51.176;6.470;2023-08-08T14:58:24;100860.88;;;20.07;62.56
10897;BME280;5501;51.176;6.470;2023-08-08T15:03:27;100850.63;;;20.40;62.78
10897;BME280;5501;51.176;6.470;2023-08-08T15:08:29;100858.97;;;20.76;61.23
10897;BME280;5501;51.176;6.470;2023-08-08T15:13:30;100847.06;;;20.92;57.65
10897;BME280;5501;51.176;6.470;2023-08-08T15:18:32;100849.59;;;21.08;58.06
10897;BME280;5501;51.176;6.470;2023-08-08T15:23:34;100849.03;;;21.03;55.81
10897;BME280;5501;51.176;6.470;2023-08-08T15:28:35;100846.75;;;20.44;58.47
10897;BME280;5501;51.176;6.470;2023-08-08T15:33:38;100840.03;;;20.37;59.58
10897;BME280;5501;51.176;6.470;2023-08-08T15:38:40;100838.28;;;20.36;57.07
10897;BME280;5501;51.176;6.470;2023-08-08T15:43:42;100854.16;;;20.14;60.28
10897;BME280;5501;51.176;6.470;2023-08-08T15:48:44;100846.03;;;20.28;59.12
10897;BME280;5501;51.176;6.470;2023-08-08T15:53:46;100847.78;;;20.29;59.51
10897;BME280;5501;51.176;6.470;2023-08-08T15:58:47;100856.16;;;20.38;58.36
10897;BME280;5501;51.176;6.470;2023-08-08T16:03:49;100847.34;;;20.35;58.19
10897;BME280;5501;51.176;6.470;2023-08-08T16:08:51;100847.34;;;20.35;58.91
10897;BME280;5501;51.176;6.470;2023-08-08T16:13:53;100847.47;;;20.60;57.02
10897;BME280;5501;51.176;6.470;2023-08-08T16:18:54;100848.06;;;20.51;58.30
10897;BME280;5501;51.176;6.470;2023-08-08T16:23:56;100851.03;;;20.34;59.04
10897;BME280;5501;51.176;6.470;2023-08-08T16:28:57;100844.16;;;20.42;57.97
10897;BME280;5501;51.176;6.470;2023-08-08T16:33:59;100844.72;;;20.21;58.97
10897;BME280;5501;51.176;6.470;2023-08-08T16:39:01;100851.06;;;20.06;59.67
10897;BME280;5501;51.176;6.470;2023-08-08T16:44:18;100852.31;;;20.00;60.03
10897;BME280;5501;51.176;6.470;2023-08-08T16:49:21;100864.97;;;20.14;61.03
10897;BME280;5501;51.176;6.470;2023-08-08T16:54:23;100858.50;;;20.16;60.51
10897;BME280;5501;51.176;6.470;2023-08-08T16:59:25;100855.34;;;19.96;62.00
10897;BME280;5501;51.176;6.470;2023-08-08T17:04:26;100858.22;;;19.92;63.07
10897;BME280;5501;51.176;6.470;2023-08-08T17:09:28;100857.44;;;19.90;62.56
10897;BME280;5501;51.176;6.470;2023-08-08T17:14:29;100850.72;;;19.83;62.84
10897;BME280;5501;51.176;6.470;2023-08-08T17:19:31;100855.53;;;19.64;63.82
10897;BME280;5501;51.176;6.470;2023-08-08T17:24:33;100844.34;;;19.70;63.15
10897;BME280;5501;51.176;6.470;2023-08-08T17:29:40;100846.28;;;19.68;63.20
10897;BME280;5501;51.176;6.470;2023-08-08T17:34:42;100837.78;;;19.60;64.52
10897;BME280;5501;51.176;6.470;2023-08-08T17:39:43;100829.13;;;19.55;65.85
10897;BME280;5501;51.176;6.470;2023-08-08T17:44:45;100823.50;;;19.58;67.81
10897;BME280;5501;51.176;6.470;2023-08-08T17:49:46;100815.72;;;19.54;68.49
10897;BME280;5501;51.176;6.470;2023-08-08T17:54:48;100821.97;;;19.54;66.97
10897;BME280;5501;51.176;6.470;2023-08-08T17:59:49;100819.09;;;19.43;66.40
10897;BME280;5501;51.176;6.470;2023-08-08T18:04:52;100819.47;;;19.37;67.38
10897;BME280;5501;51.176;6.470;2023-08-08T18:09:53;100822.00;;;19.26;66.95
10897;BME280;5501;51.176;6.470;2023-08-08T18:14:55;100816.38;;;19.29;67.21
10897;BME280;5501;51.176;6.470;2023-08-08T18:19:57;100827.56;;;19.23;67.79
10897;BME280;5501;51.176;6.470;2023-08-08T18:24:58;100832.34;;;19.18;69.21
10897;BME280;5501;51.176;6.470;2023-08-08T18:30:00;100830.66;;;19.02;69.92
10897;BME280;5501;51.176;6.470;2023-08-08T18:35:02;100838.16;;;18.97;70.85
10897;BME280;5501;51.176;6.470;2023-08-08T18:40:04;100821.69;;;19.01;71.15
10897;BME280;5501;51.176;6.470;2023-08-08T18:45:07;100823.44;;;19.02;71.64
10897;BME280;5501;51.176;6.470;2023-08-08T18:50:09;100813.72;;;19.00;72.60
10897;BME280;5501;51.176;6.470;2023-08-08T18:55:11;100821.16;;;19.10;72.38
10897;BME280;5501;51.176;6.470;2023-08-08T19:00:12;100837.19;;;18.98;72.84
10897;BME280;5501;51.176;6.470;2023-08-08T19:05:14;100846.00;;;18.56;78.86
10897;BME280;5501;51.176;6.470;2023-08-08T19:10:16;100860.75;;;18.18;85.07
10897;BME280;5501;51.176;6.470;2023-08-08T19:15:17;100864.38;;;17.86;90.97
10897;BME280;5501;51.176;6.470;2023-08-08T19:20:19;100844.66;;;17.70;94.54
10897;BME280;5501;51.176;6.470;2023-08-08T19:25:21;100843.69;;;17.71;96.02
10897;BME280;5501;51.176;6.470;2023-08-08T19:30:23;100840.41;;;17.66;98.03
10897;BME280;5501;51.176;6.470;2023-08-08T19:35:24;100845.38;;;17.41;99.61
10897;BME280;5501;51.176;6.470;2023-08-08T19:40:26;100844.41;;;17.59;98.22
10897;BME280;5501;51.176;6.470;2023-08-08T19:45:27;100843.50;;;17.59;97.07
10897;BME280;5501;51.176;6.470;2023-08-08T19:50:29;100847.97;;;17.43;99.11
10897;BME280;5501;51.176;6.470;2023-08-08T19:55:30;100836.47;;;17.56;99.11
10897;BME280;5501;51.176;6.470;2023-08-08T20:00:32;100836.25;;;17.44;99.39
10897;BME280;5501;51.176;6.470;2023-08-08T20:05:34;100835.22;;;17.29;100.00
10897;BME280;5501;51.176;6.470;2023-08-08T20:10:35;100833.50;;;17.28;100.00
10897;BME280;5501;51.176;6.470;2023-08-08T20:15:37;100832.72;;;17.09;100.00
10897;BME280;5501;51.176;6.470;2023-08-08T20:20:38;100821.66;;;17.15;100.00
10897;BME280;5501;51.176;6.470;2023-08-08T20:25:40;100822.94;;;17.08;100.00
10897;BME280;5501;51.176;6.470;2023-08-08T20:30:42;100812.06;;;16.94;100.00
10897;BME280;5501;51.176;6.470;2023-08-08T20:35:45;100806.84;;;16.91;100.00
10897;BME280;5501;51.176;6.470;2023-08-08T20:40:47;100807.00;;;16.71;100.00
10897;BME280;5501;51.176;6.470;2023-08-08T20:45:49;100790.41;;;16.63;100.00
10897;BME280;5501;51.176;6.470;2023-08-08T20:50:51;100783.13;;;16.48;100.00
10897;BME280;5501;51.176;6.470;2023-08-08T20:55:52;100766.66;;;16.37;100.00
10897;BME280;5501;51.176;6.470;2023-08-08T21:00:54;100759.28;;;16.42;100.00
10897;BME280;5501;51.176;6.470;2023-08-08T21:05:55;100762.75;;;16.44;100.00
10897;BME280;5501;51.176;6.470;2023-08-08T21:10:57;100761.78;;;16.45;100.00
10897;BME280;5501;51.176;6.470;2023-08-08T21:15:58;100767.28;;;16.44;100.00
10897;BME280;5501;51.176;6.470;2023-08-08T21:21:00;100759.56;;;16.36;100.00
10897;BME280;5501;51.176;6.470;2023-08-08T21:26:04;100767.63;;;16.53;100.00
10897;BME280;5501;51.176;6.470;2023-08-08T21:31:05;100766.66;;;16.56;100.00
10897;BME280;5501;51.176;6.470;2023-08-08T21:36:07;100758.81;;;16.51;100.00
10897;BME280;5501;51.176;6.470;2023-08-08T21:41:08;100756.91;;;16.53;100.00
10897;BME280;5501;51.176;6.470;2023-08-08T21:46:10;100738.56;;;16.61;100.00
10897;BME280;5501;51.176;6.470;2023-08-08T21:51:12;100731.19;;;16.66;100.00
10897;BME280;5501;51.176;6.470;2023-08-08T21:56:14;100721.78;;;16.58;100.00
10897;BME280;5501;51.176;6.470;2023-08-08T22:01:16;100719.16;;;16.56;100.00
10897;BME280;5501;51.176;6.470;2023-08-08T22:06:17;100725.56;;;16.54;100.00
10897;BME280;5501;51.176;6.470;2023-08-08T22:11:19;100712.22;;;16.52;100.00
10897;BME280;5501;51.176;6.470;2023-08-08T22:16:21;100709.16;;;16.60;100.00
10897;BME280;5501;51.176;6.470;2023-08-08T22:21:23;100689.69;;;16.55;100.00
10897;BME280;5501;51.176;6.470;2023-08-08T22:26:24;100680.94;;;16.68;100.00
10897;BME280;5501;51.176;6.470;2023-08-08T22:31:26;100685.75;;;16.62;100.00
10897;BME280;5501;51.176;6.470;2023-08-08T22:36:27;100679.84;;;16.55;100.00
10897;BME280;5501;51.176;6.470;2023-08-08T22:41:29;100676.81;;;16.61;100.00
10897;BME280;5501;51.176;6.470;2023-08-08T22:46:30;100677.22;;;16.54;100.00
10897;BME280;5501;51.176;6.470;2023-08-08T22:51:32;100678.13;;;16.54;100.00
10897;BME280;5501;51.176;6.470;2023-08-08T22:56:33;100675.44;;;16.54;100.00
10897;BME280;5501;51.176;6.470;2023-08-08T23:01:35;100680.00;;;16.52;100.00
10897;BME280;5501;51.176;6.470;2023-08-08T23:06:36;100669.88;;;16.57;100.00
10897;BME280;5501;51.176;6.470;2023-08-08T23:11:38;100667.53;;;16.51;100.00
10897;BME280;5501;51.176;6.470;2023-08-08T23:16:39;100657.97;;;16.46;100.00
10897;BME280;5501;51.176;6.470;2023-08-08T23:21:41;100659.31;;;16.54;100.00
10897;BME280;5501;51.176;6.470;2023-08-08T23:26:43;100660.81;;;16.60;100.00
10897;BME280;5501;51.176;6.470;2023-08-08T23:31:45;100652.84;;;16.58;100.00
10897;BME280;5501;51.176;6.470;2023-08-08T23:36:47;100644.50;;;16.63;100.00
10897;BME280;5501;51.176;6.470;2023-08-08T23:41:48;100651.81;;;16.61;100.00
10897;BME280;5501;51.176;6.470;2023-08-08T23:46:50;100645.81;;;16.56;100.00
10897;BME280;5501;51.176;6.470;2023-08-08T23:51:51;100647.03;;;16.66;100.00
10897;BME280;5501;51.176;6.470;2023-08-08T23:56:53;100648.69;;;16.68;100.00
